Abovyan, Armenia
Current Conditions -  °F | °C
As of 9:00 AM on Sunday 26 Oct 2014 (Local Time) from UDYZ Reporting Station
Overcast Overcast  
Wind Chill: 54°   Ceiling: 10000
Heat Index: 54°   Visibility: 6mi
Dew Point: 48°   Wind: 2mph
Humidity: 82%   Direction: NA
Pressure: 30.09"   Gusts: NA
Location:  40.27°N, 44.62°E
Report Text: UDYZ 260400Z VRB01MPS 9999 FEW050 OVC100 12/09 Q1019 R09/19//65NOSIG
Loading
Personal Weather Stations






























Interactive Weather Map
Tropical Storm Tracking
New forecast layout! Learn more

10-Day Weather Forecast

Advertisements
Track Severe Weather on mobile